Pagrindinis puslapis
METAR-TAF:

METAR-TAF

Oro uostai :

Sianas, Kinija

platuma: 34-26N, ilguma: 108-45E, Aukštis: 479 m

Dabartinis oras

Ataskaita buvo paskelbta 58 minutes, ne 23:00 UTC
Vėjas 2 kt nuo kintamojo kryptimis
Temperatūra 4°C
Drėgmė 93%
Slėgis 1020 hPa
Matomumas: 6000 m

METAR: ZLXY 052300Z VRB01MPS 6000 NSC 04/03 Q1020 NOSIG

Laikas: 07:58 (23:58 UTC)

Prognozė

Ataskaita buvo paskelbta 2 valandos ir 57 minutes, ne 21:01 UTC
Prognozė galioja nuo 06 metu 00 UTC su 06 metu 24 UTC
Vėjas 6 kt iš Rytų
Matomumas: 3000 m
migla

TAF: ZLXY 052101Z 0600/0624 08003MPS 3000 HZ NSC TX21/0608Z TN07/0622Z

Orai ataskaitas ir orų prognozės (METAR, TAF).

turimą stotys yra geltonos ir raudonos taškus žemėlapyje.

Perkelti pele per norėdami pamatyti stoties vardą.

Tada spustelėkite, norėdami matyti oro stebėjimo ir prognozės.

Norėdami pakeisti žemėlapį: spustelėkite ant žalios mygtukų su juodo kryžiaus žemyn,; žalią mygtuką su brūkšneliu, jei norite nutolinti; arba žalių rodyklių gretimoms žemėlapius.


METAR-TAF: